Terminal Aerodrome Forecast
Issued by NWS

Home | Current Version | Previous Version | Text Only | Print | Product List | Glossary On
Versions: 1 2 3 4 5 6 7 8 9 10 11 12 13 14 15 16 17 18 19 20 21 22 23 24 25 26 27 28 29 30 31
000
FTUS41 KOKX 310019 RRA
TAFGON
TAF
KGON 310019Z 3100/3124 21006KT 1/4SM FG VV002
      TEMPO 3100/3101 1/2SM FG
     FM310400 VRB03KT 1/4SM FG VCSH VV002
     FM311200 25005KT 2SM BR OVC004
     FM311400 31005KT P6SM FEW004 SCT250
     FM311600 20007KT P6SM FEW040 SCT250=

USA.gov is the U.S. government's official web portal to all federal, state and local government web resources and services.